Time;durP1;ratioP1;P1;durP2;ratioP2;P2;SDS_P1;SDS_P2;PMS_P1;PMS_P2;Temp;Humidity;BMP_temperature;BMP_pressure;BME280_temperature;BME280_humidity;BME280_pressure;Samples;Min_cycle;Max_cycle;Signal;HPM_P1;HPM_P2
2024/01/15 00:00:15;;;;;;;78.07;45.42;;;;;;;-0.19;63.00;94024.97;4204004;28;20578;-67
2024/01/15 00:02:17;;;;;;;75.18;46.25;;;;;;;-0.33;62.52;94011.34;4199496;28;20100;-66
2024/01/15 00:04:18;;;;;;;76.88;45.60;;;;;;;-0.69;63.93;94035.38;4205520;28;20072;-68
2024/01/15 00:06:21;;;;;;;82.22;46.30;;;;;;;-0.94;64.33;94024.22;4205164;28;20056;-67
2024/01/15 00:08:23;;;;;;;79.95;46.92;;;;;;;-0.94;64.98;94011.38;4207438;28;20427;-66
2024/01/15 00:10:25;;;;;;;73.93;45.22;;;;;;;-0.77;65.45;94017.09;4202772;28;20045;-65
2024/01/15 00:12:26;;;;;;;69.15;43.65;;;;;;;-0.54;63.97;94000.84;4199695;28;20060;-67
2024/01/15 00:14:29;;;;;;;77.60;43.58;;;;;;;-0.32;62.97;94014.75;4204928;28;20070;-66
2024/01/15 00:16:31;;;;;;;69.07;47.00;;;;;;;-0.48;63.48;94020.16;4202230;28;20076;-66
2024/01/15 00:18:33;;;;;;;74.15;45.45;;;;;;;-0.52;63.37;94006.69;4205872;28;20048;-67
2024/01/15 00:20:35;;;;;;;86.00;49.33;;;;;;;-0.47;64.04;94004.63;4207728;28;20048;-66
2024/01/15 00:22:37;;;;;;;76.15;45.65;;;;;;;-0.42;63.40;94010.25;4200813;28;20056;-66
2024/01/15 00:24:39;;;;;;;83.97;48.05;;;;;;;-0.47;63.60;94011.53;4198346;28;20048;-68
2024/01/15 00:26:41;;;;;;;82.82;47.42;;;;;;;-0.52;63.90;94009.28;4202003;28;20409;-65
2024/01/15 00:28:43;;;;;;;81.15;49.20;;;;;;;-0.70;64.25;94024.25;4195481;28;20044;-66
2024/01/15 00:30:44;;;;;;;83.95;48.92;;;;;;;-0.63;64.48;94025.47;4199688;28;20058;-66
2024/01/15 00:32:47;;;;;;;91.10;53.88;;;;;;;-0.68;64.78;94030.13;4202676;28;20105;-69
2024/01/15 00:34:48;;;;;;;93.55;53.40;;;;;;;-0.75;64.91;94017.78;4201421;28;20411;-66
2024/01/15 00:36:50;;;;;;;81.78;49.47;;;;;;;-0.61;65.42;94025.38;4200715;28;20036;-65
2024/01/15 00:38:53;;;;;;;90.97;52.78;;;;;;;-0.55;64.75;94014.66;4199740;28;20130;-66
2024/01/15 00:40:55;;;;;;;86.47;49.58;;;;;;;-0.51;63.97;94018.66;4198286;28;20423;-67
2024/01/15 00:42:57;;;;;;;75.93;47.78;;;;;;;-0.51;64.37;94013.50;4201464;28;20056;-66
2024/01/15 00:44:59;;;;;;;78.22;47.13;;;;;;;-0.50;64.35;94015.13;4195806;28;20045;-66
2024/01/15 00:47:01;;;;;;;79.15;48.45;;;;;;;-0.37;64.59;94016.84;4206895;28;20063;-66
2024/01/15 00:49:04;;;;;;;80.80;48.13;;;;;;;-0.17;63.96;94017.97;4205034;28;20131;-67
2024/01/15 00:51:06;;;;;;;76.82;48.00;;;;;;;-0.01;63.37;94015.94;4196239;28;20151;-67
2024/01/15 00:53:08;;;;;;;78.07;46.65;;;;;;;0.11;61.93;94015.03;4194003;28;20120;-68
2024/01/15 00:55:09;;;;;;;83.35;50.05;;;;;;;0.09;61.78;94019.47;4196083;28;20135;-66
2024/01/15 00:57:11;;;;;;;79.78;48.90;;;;;;;-0.05;61.84;94007.59;4204428;28;20048;-67
2024/01/15 00:59:14;;;;;;;81.80;48.38;;;;;;;-0.04;62.45;94013.59;4196924;28;20138;-67
2024/01/15 01:01:17;;;;;;;75.30;47.60;;;;;;;0.09;62.48;94013.50;4199518;28;20632;-70
2024/01/15 01:03:19;;;;;;;79.72;47.67;;;;;;;0.20;62.01;94018.69;4194032;28;20141;-67
2024/01/15 01:05:21;;;;;;;79.32;49.05;;;;;;;0.26;61.05;94004.50;4207205;28;20052;-68
2024/01/15 01:07:23;;;;;;;85.22;48.42;;;;;;;0.33;61.10;94005.72;4199036;28;20134;-66
2024/01/15 01:09:25;;;;;;;77.07;47.22;;;;;;;0.31;60.74;94005.81;4201741;28;20438;-65
2024/01/15 01:11:27;;;;;;;75.55;46.97;;;;;;;0.13;60.77;94007.19;4197907;28;20431;-66
2024/01/15 01:13:29;;;;;;;78.03;47.15;;;;;;;0.03;61.28;94009.63;4199110;28;20159;-65
2024/01/15 01:15:30;;;;;;;73.38;45.85;;;;;;;0.11;61.33;94009.06;4198301;28;20075;-65
2024/01/15 01:17:32;;;;;;;72.47;44.08;;;;;;;-0.02;61.59;94004.81;4202694;28;20379;-65
2024/01/15 01:19:34;;;;;;;71.97;43.75;;;;;;;0.01;61.67;94000.38;4199937;28;20052;-65
2024/01/15 01:21:37;;;;;;;74.78;43.38;;;;;;;0.15;61.93;94005.31;4206823;28;20051;-65
2024/01/15 01:23:38;;;;;;;71.65;41.67;;;;;;;0.07;60.94;94000.75;4206659;28;20425;-67
2024/01/15 01:25:40;;;;;;;71.10;42.72;;;;;;;0.11;61.67;93998.78;4204446;28;20127;-66
2024/01/15 01:27:42;;;;;;;70.57;41.25;;;;;;;0.16;60.58;93987.19;4206898;28;20052;-66
2024/01/15 01:29:44;;;;;;;69.63;41.60;;;;;;;0.04;60.90;93993.22;4202728;28;20131;-67
2024/01/15 01:31:46;;;;;;;65.30;40.03;;;;;;;-0.07;61.31;93988.03;4193120;28;20063;-64
2024/01/15 01:33:48;;;;;;;67.40;40.83;;;;;;;-0.17;61.60;93984.50;4195309;28;20048;-69
2024/01/15 01:35:50;;;;;;;70.10;41.83;;;;;;;-0.22;62.30;93989.97;4197911;28;20056;-65
2024/01/15 01:37:52;;;;;;;65.95;42.95;;;;;;;-0.10;62.32;93985.72;4198465;28;20046;-67
2024/01/15 01:39:54;;;;;;;69.18;42.75;;;;;;;-0.06;61.77;93982.78;4204658;28;20051;-65
2024/01/15 01:41:56;;;;;;;63.80;40.33;;;;;;;-0.06;61.57;93974.25;4203163;28;20051;-66
2024/01/15 01:43:58;;;;;;;67.72;38.63;;;;;;;-0.25;61.59;93982.50;4205839;28;20049;-66
2024/01/15 01:46:00;;;;;;;66.25;39.85;;;;;;;-0.33;62.06;93977.06;4201640;28;20123;-66
2024/01/15 01:48:04;;;;;;;69.97;40.45;;;;;;;-0.24;62.47;93987.53;4194745;28;20098;-66
2024/01/15 01:50:06;;;;;;;68.05;42.22;;;;;;;-0.10;62.31;93975.41;4204482;28;20052;-67
2024/01/15 01:52:09;;;;;;;59.25;38.28;;;;;;;-0.12;61.78;93977.28;4207885;28;20044;-66
2024/01/15 01:54:13;;;;;;;69.43;40.65;;;;;;;-0.16;62.11;93971.53;4194091;28;20352;-65
2024/01/15 01:56:15;;;;;;;62.17;41.55;;;;;;;-0.38;62.66;93974.84;4202754;28;20192;-67
2024/01/15 01:58:18;;;;;;;69.55;40.40;;;;;;;-0.35;63.01;93971.22;4202394;28;20135;-68
2024/01/15 02:00:20;;;;;;;63.67;40.47;;;;;;;-0.43;63.18;93972.59;4198483;28;20107;-67
2024/01/15 02:02:22;;;;;;;65.50;40.13;;;;;;;-0.54;63.55;93967.38;4203872;28;20124;-66
2024/01/15 02:04:25;;;;;;;62.40;39.05;;;;;;;-0.41;63.73;93967.31;4203064;28;20099;-67
2024/01/15 02:06:27;;;;;;;61.80;37.95;;;;;;;-0.39;63.22;93964.66;4197343;28;20043;-67
2024/01/15 02:08:29;;;;;;;58.25;35.05;;;;;;;-0.36;62.62;93967.03;4206500;28;20577;-68
2024/01/15 02:10:31;;;;;;;56.80;35.95;;;;;;;-0.43;62.43;93967.47;4205316;28;20414;-67
2024/01/15 02:12:33;;;;;;;56.90;35.15;;;;;;;-0.39;62.62;93964.66;4204509;28;20153;-65
2024/01/15 02:14:34;;;;;;;59.50;36.92;;;;;;;-0.40;62.75;93955.31;4198156;28;20040;-65
2024/01/15 02:16:36;;;;;;;58.45;36.20;;;;;;;-0.39;62.59;93956.94;4194998;28;20052;-68
2024/01/15 02:18:45;;;;;;;63.30;37.95;;;;;;;-0.52;63.25;93947.53;4191928;28;20459;-67
2024/01/15 02:20:47;;;;;;;61.28;36.90;;;;;;;-0.59;63.10;93936.03;4191563;28;20086;-68
2024/01/15 02:22:49;;;;;;;59.70;36.67;;;;;;;-0.65;63.58;93937.28;4192925;28;20060;-68
2024/01/15 02:24:51;;;;;;;54.60;35.55;;;;;;;-0.68;64.02;93913.56;4197977;28;20033;-67
2024/01/15 02:26:53;;;;;;;52.80;33.38;;;;;;;-0.57;63.93;93902.50;4197969;28;20421;-66
2024/01/15 02:28:55;;;;;;;54.17;32.03;;;;;;;-0.58;63.57;93901.69;4195688;28;20062;-67
2024/01/15 02:30:57;;;;;;;52.70;32.85;;;;;;;-0.50;63.25;93901.91;4198536;28;20121;-66
2024/01/15 02:32:59;;;;;;;55.47;32.40;;;;;;;-0.38;63.52;93905.38;4195231;28;20457;-67
2024/01/15 02:35:01;;;;;;;50.17;31.52;;;;;;;-0.26;62.29;93901.03;4208080;28;20076;-66
2024/01/15 02:37:03;;;;;;;52.15;31.23;;;;;;;-0.29;62.25;93902.09;4206556;28;20048;-65
2024/01/15 02:39:05;;;;;;;50.72;30.92;;;;;;;-0.37;62.15;93904.41;4205576;28;20167;-66
2024/01/15 02:41:07;;;;;;;51.33;30.48;;;;;;;-0.36;62.00;93912.97;4196689;28;20064;-66
2024/01/15 02:43:09;;;;;;;50.00;31.02;;;;;;;-0.47;61.89;93906.03;4202122;28;20118;-65
2024/01/15 02:45:10;;;;;;;49.28;30.30;;;;;;;-0.50;62.38;93912.22;4203720;28;20054;-65
2024/01/15 02:47:12;;;;;;;51.85;29.80;;;;;;;-0.40;62.24;93907.22;4208327;28;20051;-66
2024/01/15 02:49:14;;;;;;;46.55;29.50;;;;;;;-0.24;61.92;93901.75;4200494;28;20064;-65
2024/01/15 02:51:16;;;;;;;51.45;30.15;;;;;;;-0.10;61.84;93898.19;4206958;28;20430;-67
2024/01/15 02:53:18;;;;;;;45.78;28.60;;;;;;;0.08;61.01;93906.25;4207097;28;20152;-65
2024/01/15 02:55:20;;;;;;;42.50;27.23;;;;;;;0.23;60.36;93902.53;4199426;28;20084;-68
2024/01/15 02:57:22;;;;;;;41.63;26.60;;;;;;;0.34;59.89;93905.09;4207590;28;20044;-67
2024/01/15 02:59:26;;;;;;;;;;;;;;;0.24;59.69;93901.59;4202563;28;20049;-67
2024/01/15 03:01:30;;;;;;;46.35;26.63;;;;;;;0.16;59.99;93894.44;4197556;28;19963;-67
2024/01/15 03:03:33;;;;;;;45.15;28.38;;;;;;;0.15;60.55;93897.13;4205221;28;20059;-66
2024/01/15 03:05:35;;;;;;;42.08;27.55;;;;;;;0.19;60.26;93896.81;4206588;28;20135;-65
2024/01/15 03:07:37;;;;;;;50.42;30.08;;;;;;;0.26;60.24;93897.16;4201890;28;20048;-67
2024/01/15 03:09:39;;;;;;;44.53;26.90;;;;;;;0.28;60.15;93887.56;4201994;28;20053;-65
2024/01/15 03:11:41;;;;;;;51.30;30.65;;;;;;;-0.05;60.46;93899.44;4197488;28;20059;-66
2024/01/15 03:13:43;;;;;;;47.78;30.85;;;;;;;-0.31;61.11;93892.84;4202808;28;20506;-62
2024/01/15 03:15:45;;;;;;;51.70;32.67;;;;;;;-0.69;62.14;93893.91;4199746;28;20040;-67
2024/01/15 03:17:47;;;;;;;57.88;32.60;;;;;;;-0.75;62.69;93895.19;4200226;28;20060;-66
2024/01/15 03:19:49;;;;;;;50.70;32.85;;;;;;;-0.98;63.55;93896.81;4199179;28;20121;-66
2024/01/15 03:21:51;;;;;;;56.42;33.60;;;;;;;-0.99;63.81;93890.06;4209422;28;20044;-66
2024/01/15 03:23:53;;;;;;;57.22;34.28;;;;;;;-0.96;63.94;93882.09;4198726;28;20573;-66
2024/01/15 03:25:55;;;;;;;54.78;33.05;;;;;;;-0.92;64.69;93893.81;4198898;28;20048;-67
2024/01/15 03:27:57;;;;;;;63.50;37.42;;;;;;;-0.95;64.11;93882.91;4201570;28;20430;-66
2024/01/15 03:29:59;;;;;;;63.28;38.47;;;;;;;-0.88;64.72;93881.56;4196257;28;20055;-68
2024/01/15 03:32:01;;;;;;;64.03;38.80;;;;;;;-0.90;64.89;93881.66;4193016;28;20079;-67
2024/01/15 03:34:03;;;;;;;64.97;39.85;;;;;;;-0.88;64.83;93874.66;4208095;28;20044;-66
2024/01/15 03:36:05;;;;;;;70.30;42.80;;;;;;;-0.96;64.98;93876.16;4200616;28;20048;-66
2024/01/15 03:38:07;;;;;;;76.40;43.90;;;;;;;-1.12;65.04;93881.53;4198514;28;20114;-66
2024/01/15 03:40:10;;;;;;;73.40;42.38;;;;;;;-1.06;65.46;93874.22;4200556;28;20068;-69
2024/01/15 03:42:12;;;;;;;71.15;42.55;;;;;;;-1.00;65.66;93872.97;4197773;28;20107;-66
2024/01/15 03:44:14;;;;;;;70.80;44.05;;;;;;;-0.90;65.59;93871.38;4203663;28;20045;-66
2024/01/15 03:46:15;;;;;;;82.30;45.47;;;;;;;-0.68;64.98;93877.56;4204284;28;20443;-66
2024/01/15 03:48:17;;;;;;;81.38;47.78;;;;;;;-0.66;64.56;93873.94;4198601;28;20123;-67
2024/01/15 03:50:19;;;;;;;73.95;46.17;;;;;;;-0.52;64.70;93864.38;4197649;28;20060;-66
2024/01/15 03:52:21;;;;;;;81.55;51.17;;;;;;;-0.70;64.05;93871.69;4201916;28;20454;-67
2024/01/15 03:54:23;;;;;;;84.18;48.67;;;;;;;-0.96;64.72;93879.53;4194159;28;20055;-67
2024/01/15 03:56:25;;;;;;;81.75;48.13;;;;;;;-1.06;65.40;93875.97;4205669;28;20044;-66
2024/01/15 03:58:26;;;;;;;80.18;48.33;;;;;;;-0.97;65.50;93877.88;4198183;28;20054;-65
2024/01/15 04:00:28;;;;;;;86.00;50.53;;;;;;;-0.89;65.42;93878.16;4205588;28;20040;-66
2024/01/15 04:02:30;;;;;;;79.00;46.40;;;;;;;-0.84;64.57;93878.66;4199005;28;20503;-65
2024/01/15 04:04:32;;;;;;;94.38;57.30;;;;;;;-0.79;64.83;93867.22;4207108;28;20080;-68
2024/01/15 04:06:34;;;;;;;99.32;54.30;;;;;;;-0.71;64.60;93857.19;4195205;28;20045;-66
2024/01/15 04:08:36;;;;;;;85.13;53.10;;;;;;;-0.68;64.47;93849.25;4199923;28;20124;-67
2024/01/15 04:10:38;;;;;;;95.07;55.58;;;;;;;-0.77;64.73;93860.22;4198341;28;20048;-68
2024/01/15 04:12:40;;;;;;;106.13;61.47;;;;;;;-1.03;64.48;93857.78;4204583;28;20087;-67
2024/01/15 04:14:41;;;;;;;127.53;73.30;;;;;;;-1.18;65.63;93861.41;4193069;28;20048;-66
2024/01/15 04:16:43;;;;;;;136.93;78.15;;;;;;;-1.33;66.09;93859.03;4202203;28;20458;-67
2024/01/15 04:18:45;;;;;;;145.30;83.82;;;;;;;-1.53;66.49;93862.16;4206402;28;20118;-65
2024/01/15 04:20:47;;;;;;;157.43;89.85;;;;;;;-1.62;67.25;93855.09;4205421;28;20109;-67
2024/01/15 04:22:49;;;;;;;156.95;89.60;;;;;;;-1.66;67.80;93852.75;4207727;28;20414;-63
2024/01/15 04:24:51;;;;;;;158.25;89.72;;;;;;;-1.49;67.55;93854.13;4205262;28;20066;-67
2024/01/15 04:26:55;;;;;;;159.07;88.53;;;;;;;-1.43;67.13;93867.50;4206179;28;20152;-68
2024/01/15 04:28:56;;;;;;;157.07;91.25;;;;;;;-1.50;66.59;93870.47;4207110;28;20089;-66
2024/01/15 04:30:58;;;;;;;161.80;92.95;;;;;;;-1.47;67.02;93857.41;4205443;28;20462;-66
2024/01/15 04:33:00;;;;;;;163.10;90.13;;;;;;;-1.27;66.97;93860.31;4204818;28;20740;-68
2024/01/15 04:35:02;;;;;;;156.00;89.60;;;;;;;-1.15;65.83;93856.06;4204663;28;20050;-68
2024/01/15 04:37:04;;;;;;;161.00;89.22;;;;;;;-1.15;66.03;93861.22;4196041;28;20506;-66
2024/01/15 04:39:07;;;;;;;156.20;90.93;;;;;;;-0.99;65.45;93858.34;4208215;28;20070;-66
2024/01/15 04:41:13;;;;;;;164.68;89.88;;;;;;;-0.92;65.08;93857.81;4192890;28;20071;-66
2024/01/15 04:43:15;;;;;;;162.90;92.22;;;;;;;-0.83;64.70;93859.72;4200686;28;20555;-66
2024/01/15 04:45:18;;;;;;;152.45;89.28;;;;;;;-0.78;64.50;93853.44;4207375;28;20414;-67
2024/01/15 04:47:20;;;;;;;154.95;90.05;;;;;;;-0.71;64.02;93844.31;4201305;28;20190;-64
2024/01/15 04:49:22;;;;;;;157.27;89.85;;;;;;;-0.64;63.87;93848.91;4198702;28;20053;-68
2024/01/15 04:51:24;;;;;;;147.35;85.07;;;;;;;-0.61;63.75;93847.88;4202833;28;20091;-66
2024/01/15 04:53:26;;;;;;;147.45;84.63;;;;;;;-0.55;63.56;93841.47;4198080;28;20053;-65
2024/01/15 04:55:28;;;;;;;138.50;80.32;;;;;;;-0.45;63.21;93835.53;4199799;28;20086;-66
2024/01/15 04:57:29;;;;;;;138.18;80.93;;;;;;;-0.40;62.41;93824.88;4206318;28;20093;-68
2024/01/15 04:59:31;;;;;;;136.07;82.22;;;;;;;-0.40;62.20;93827.44;4204485;28;20078;-65
2024/01/15 05:01:33;;;;;;;140.60;81.28;;;;;;;-0.37;62.23;93828.97;4206691;28;20517;-67
2024/01/15 05:03:35;;;;;;;131.43;81.13;;;;;;;-0.39;62.76;93826.50;4197581;28;20554;-69
2024/01/15 05:05:37;;;;;;;145.65;82.43;;;;;;;-0.58;63.00;93828.81;4194666;28;20422;-69
2024/01/15 05:07:39;;;;;;;138.65;82.85;;;;;;;-0.83;63.73;93833.19;4194858;28;20103;-67
2024/01/15 05:09:41;;;;;;;138.13;82.32;;;;;;;-1.03;64.33;93829.50;4207600;28;20257;-68
2024/01/15 05:11:43;;;;;;;143.85;84.18;;;;;;;-1.06;65.30;93825.38;4208205;28;20055;-67
2024/01/15 05:13:45;;;;;;;143.73;82.30;;;;;;;-1.05;65.74;93824.47;4198965;28;20075;-69
2024/01/15 05:15:47;;;;;;;142.07;85.38;;;;;;;-1.04;65.54;93817.56;4195505;28;20179;-68
2024/01/15 05:17:49;;;;;;;146.13;85.97;;;;;;;-1.06;65.83;93822.00;4195902;28;20072;-67
2024/01/15 05:19:51;;;;;;;143.30;84.20;;;;;;;-1.15;66.04;93833.75;4200555;28;20047;-68
2024/01/15 05:21:53;;;;;;;145.95;85.68;;;;;;;-1.10;65.75;93823.97;4202397;28;20048;-67
2024/01/15 05:23:55;;;;;;;153.98;89.68;;;;;;;-1.25;66.17;93827.63;4200666;28;20058;-68
2024/01/15 05:25:57;;;;;;;152.13;88.65;;;;;;;-1.53;66.98;93828.75;4194830;28;20047;-67
2024/01/15 05:27:59;;;;;;;158.32;88.75;;;;;;;-1.58;67.34;93835.97;4195211;28;20131;-68
2024/01/15 05:30:01;;;;;;;159.38;92.13;;;;;;;-1.65;67.85;93836.41;4196817;28;20139;-68
2024/01/15 05:32:03;;;;;;;162.18;90.45;;;;;;;-1.79;67.40;93815.19;4194730;28;20047;-67
2024/01/15 05:34:05;;;;;;;160.88;90.00;;;;;;;-1.87;68.04;93823.44;4206708;28;20048;-66
2024/01/15 05:36:07;;;;;;;163.23;92.13;;;;;;;-1.94;67.69;93827.31;4197941;28;20067;-66
2024/01/15 05:38:09;;;;;;;161.43;88.55;;;;;;;-1.74;68.55;93824.22;4206715;28;20138;-65
2024/01/15 05:40:12;;;;;;;160.90;92.63;;;;;;;-1.63;67.31;93828.59;4206950;28;20395;-67
2024/01/15 05:42:14;;;;;;;152.32;87.70;;;;;;;-1.41;67.16;93825.34;4200619;28;20059;-66
2024/01/15 05:44:16;;;;;;;154.00;88.53;;;;;;;-1.18;66.55;93823.72;4204358;28;20072;-66
2024/01/15 05:46:18;;;;;;;152.10;89.90;;;;;;;-1.20;65.38;93812.72;4201929;28;20483;-66
2024/01/15 05:48:20;;;;;;;162.10;90.05;;;;;;;-1.37;65.68;93806.22;4206102;28;20074;-66
2024/01/15 05:50:22;;;;;;;162.27;92.70;;;;;;;-1.66;66.72;93805.69;4203547;28;20128;-67
2024/01/15 05:52:24;;;;;;;160.43;91.25;;;;;;;-1.87;67.55;93803.72;4201244;28;20048;-68
2024/01/15 05:54:26;;;;;;;155.25;87.95;;;;;;;-1.72;67.73;93801.81;4196237;28;20056;-67
2024/01/15 05:56:28;;;;;;;149.30;86.30;;;;;;;-1.49;66.84;93794.22;4203468;28;21227;-65
2024/01/15 05:58:30;;;;;;;151.98;86.97;;;;;;;-1.28;66.21;93812.44;4203668;28;20431;-66
2024/01/15 06:00:33;;;;;;;147.45;85.03;;;;;;;-1.09;65.50;93806.81;4206684;28;20070;-67
2024/01/15 06:02:35;;;;;;;153.77;83.60;;;;;;;-1.02;65.17;93802.03;4205514;28;20063;-65
2024/01/15 06:04:37;;;;;;;144.25;84.78;;;;;;;-0.90;64.79;93804.53;4208078;28;20387;-67
2024/01/15 06:06:39;;;;;;;147.77;86.18;;;;;;;-0.90;64.16;93804.53;4201002;28;20048;-65
2024/01/15 06:08:41;;;;;;;144.18;85.45;;;;;;;-0.94;64.17;93802.31;4205033;28;20565;-66
2024/01/15 06:10:42;;;;;;;139.98;83.78;;;;;;;-1.15;64.77;93794.41;4205377;28;20058;-67
2024/01/15 06:12:44;;;;;;;146.18;84.82;;;;;;;-1.10;65.61;93802.59;4195411;28;20482;-67
2024/01/15 06:14:46;;;;;;;140.52;82.28;;;;;;;-1.02;65.34;93805.41;4206941;28;20044;-67
2024/01/15 06:16:49;;;;;;;132.32;79.30;;;;;;;-0.88;65.00;93812.16;4207706;28;20249;-66
2024/01/15 06:18:51;;;;;;;133.95;81.20;;;;;;;-0.70;64.21;93800.50;4201668;28;20041;-69
2024/01/15 06:20:53;;;;;;;140.93;82.10;;;;;;;-0.67;64.42;93805.44;4206418;28;20057;-67
2024/01/15 06:22:55;;;;;;;135.40;78.40;;;;;;;-0.66;64.51;93801.09;4204257;28;20055;-66
2024/01/15 06:24:57;;;;;;;127.40;77.43;;;;;;;-0.58;64.22;93793.63;4196695;28;20052;-67
2024/01/15 06:26:59;;;;;;;131.20;79.65;;;;;;;-0.73;63.83;93789.59;4192767;28;20052;-66
2024/01/15 06:29:02;;;;;;;131.18;81.57;;;;;;;-0.91;64.81;93787.44;4202580;28;20078;-69
2024/01/15 06:31:06;;;;;;;130.05;78.45;;;;;;;-0.87;65.48;93798.34;4207240;28;20052;-69
2024/01/15 06:33:08;;;;;;;;;;;;;;;-0.77;65.29;93808.78;4202704;28;20048;-69
2024/01/15 06:35:11;;;;;;;126.65;74.55;;;;;;;-0.68;64.97;93803.78;4199346;28;19978;-67
2024/01/15 06:37:13;;;;;;;122.60;73.47;;;;;;;-0.51;64.68;93802.53;4196083;28;20779;-66
2024/01/15 06:39:15;;;;;;;127.05;73.50;;;;;;;-0.38;64.14;93799.03;4202792;28;20354;-67
2024/01/15 06:41:17;;;;;;;127.97;78.10;;;;;;;-0.37;63.29;93796.34;4204774;28;20086;-69
2024/01/15 06:43:19;;;;;;;136.98;81.43;;;;;;;-0.45;63.99;93801.25;4194571;28;20427;-68
2024/01/15 06:45:20;;;;;;;122.68;77.53;;;;;;;-0.32;63.82;93801.13;4201790;28;20091;-66
2024/01/15 06:47:22;;;;;;;131.32;77.18;;;;;;;-0.16;63.44;93804.19;4201031;28;20092;-67
2024/01/15 06:49:24;;;;;;;123.72;75.55;;;;;;;0.07;62.84;93804.22;4199240;28;20048;-68
2024/01/15 06:51:26;;;;;;;118.55;73.65;;;;;;;0.13;62.46;93804.56;4207702;28;20082;-69
2024/01/15 06:53:28;;;;;;;108.10;67.15;;;;;;;0.14;62.71;93806.19;4204061;28;20482;-67
2024/01/15 06:55:30;;;;;;;116.15;66.28;;;;;;;0.24;61.75;93796.00;4191419;28;20801;-67
2024/01/15 06:57:32;;;;;;;112.03;67.40;;;;;;;0.01;62.00;93802.09;4201350;28;20071;-68
2024/01/15 06:59:37;;;;;;;112.13;66.07;;;;;;;0.12;63.27;93807.25;4201578;28;20158;-66
2024/01/15 07:01:40;;;;;;;99.15;62.25;;;;;;;0.24;62.21;93814.03;4200839;28;20544;-63
2024/01/15 07:03:42;;;;;;;108.82;63.25;;;;;;;0.03;61.69;93815.69;4199075;28;20105;-67
2024/01/15 07:05:44;;;;;;;106.43;62.72;;;;;;;-0.16;62.13;93818.81;4203580;28;20054;-67
2024/01/15 07:07:47;;;;;;;113.90;70.68;;;;;;;-0.14;62.34;93812.63;4201345;28;20047;-65
2024/01/15 07:09:51;;;;;;;116.10;74.40;;;;;;;-0.27;62.96;93820.44;4199362;28;20210;-66
2024/01/15 07:11:56;;;;;;;108.13;68.43;;;;;;;-0.11;62.98;93817.53;4199962;28;20490;-66
2024/01/15 07:13:58;;;;;;;112.10;65.57;;;;;;;-0.06;62.28;93822.34;4208087;28;20120;-68
2024/01/15 07:16:00;;;;;;;109.90;63.85;;;;;;;0.05;62.39;93818.97;4196941;28;20177;-67
2024/01/15 07:18:02;;;;;;;105.13;61.65;;;;;;;0.16;61.88;93818.94;4209284;28;20482;-68
2024/01/15 07:20:08;;;;;;;93.85;57.67;;;;;;;0.01;62.58;93815.78;4202229;28;20462;-67
2024/01/15 07:22:10;;;;;;;94.80;57.33;;;;;;;0.16;62.22;93818.94;4200232;28;20644;-68
2024/01/15 07:24:12;;;;;;;91.63;57.85;;;;;;;0.02;62.65;93808.88;4203678;28;20056;-66
2024/01/15 07:26:13;;;;;;;97.65;59.85;;;;;;;-0.16;63.59;93813.69;4196224;28;20460;-68
2024/01/15 07:28:15;;;;;;;98.75;58.30;;;;;;;-0.11;63.19;93802.06;4193820;28;20056;-68
2024/01/15 07:30:17;;;;;;;92.45;58.50;;;;;;;-0.12;63.17;93803.03;4198202;28;20139;-68
2024/01/15 07:32:20;;;;;;;95.93;58.50;;;;;;;-0.10;63.16;93796.00;4205011;28;20121;-69
2024/01/15 07:34:22;;;;;;;89.97;54.70;;;;;;;-0.02;62.82;93803.97;4202674;28;20083;-65
2024/01/15 07:36:24;;;;;;;92.68;56.25;;;;;;;0.11;62.89;93788.41;4208293;28;20082;-67
2024/01/15 07:38:26;;;;;;;93.65;57.28;;;;;;;0.22;62.43;93782.41;4204785;28;20139;-68
2024/01/15 07:40:28;;;;;;;91.88;56.33;;;;;;;0.27;62.18;93790.59;4203194;28;20044;-69
2024/01/15 07:42:30;;;;;;;88.30;55.55;;;;;;;0.21;62.28;93796.22;4193117;28;20045;-71
2024/01/15 07:44:31;;;;;;;87.78;55.28;;;;;;;0.27;62.38;93815.53;4203410;28;20471;-66
2024/01/15 07:46:33;;;;;;;89.95;56.20;;;;;;;0.41;61.53;93797.25;4207549;28;20077;-67
2024/01/15 07:48:35;;;;;;;96.68;59.45;;;;;;;0.30;61.82;93799.84;4202817;28;20045;-67
2024/01/15 07:50:37;;;;;;;90.22;55.38;;;;;;;0.45;62.43;93798.63;4205645;28;20143;-67
2024/01/15 07:52:41;;;;;;;95.70;58.05;;;;;;;0.48;62.22;93823.38;4209203;28;20056;-66
2024/01/15 07:54:44;;;;;;;93.30;58.30;;;;;;;0.66;61.51;93816.75;4200417;28;20052;-68
2024/01/15 07:56:55;;;;;;;94.78;60.35;;;;;;;0.80;61.13;93816.50;4208298;28;20672;-70
2024/01/15 07:58:57;;;;;;;105.28;62.10;;;;;;;0.64;61.40;93787.69;4196819;28;20157;-68
2024/01/15 08:00:59;;;;;;;109.05;66.25;;;;;;;0.43;62.52;93785.06;4205397;28;20510;-69
2024/01/15 08:03:02;;;;;;;99.35;63.67;;;;;;;0.36;63.27;93782.13;4201521;28;20148;-69
2024/01/15 08:05:05;;;;;;;124.00;72.33;;;;;;;0.37;63.39;93775.25;4193713;28;20193;-70
2024/01/15 08:07:07;;;;;;;111.73;67.47;;;;;;;0.35;63.61;93784.84;4199120;28;20343;-68
2024/01/15 08:09:09;;;;;;;107.20;68.68;;;;;;;0.51;63.56;93787.84;4206810;28;20291;-67
2024/01/15 08:11:11;;;;;;;105.68;66.78;;;;;;;0.61;63.16;93795.69;4204971;28;20052;-68
2024/01/15 08:13:13;;;;;;;95.75;62.20;;;;;;;0.73;62.80;93804.19;4204240;28;20434;-69
2024/01/15 08:15:15;;;;;;;90.95;60.10;;;;;;;0.61;62.23;93809.38;4199729;28;20113;-68
2024/01/15 08:17:17;;;;;;;95.07;59.92;;;;;;;0.74;61.97;93809.25;4199998;28;20082;-68
2024/01/15 08:19:22;;;;;;;92.68;59.85;;;;;;;0.66;61.42;93810.78;4201804;28;20048;-66
2024/01/15 08:21:24;;;;;;;96.28;60.00;;;;;;;0.68;62.20;93803.75;4196096;28;20127;-71
2024/01/15 08:23:28;;;;;;;93.25;59.83;;;;;;;0.81;62.18;93809.56;4202412;28;20048;-68
2024/01/15 08:25:30;;;;;;;101.72;62.75;;;;;;;0.92;61.71;93812.09;4202291;28;20088;-69
2024/01/15 08:27:32;;;;;;;94.90;62.35;;;;;;;0.88;61.58;93815.84;4192921;28;20056;-69
2024/01/15 08:29:34;;;;;;;103.78;63.03;;;;;;;0.86;61.82;93812.63;4198931;28;20491;-67
2024/01/15 08:31:36;;;;;;;100.20;65.28;;;;;;;0.90;61.70;93802.84;4207110;28;20074;-69
2024/01/15 08:33:38;;;;;;;103.72;65.70;;;;;;;0.90;61.85;93813.16;4203681;28;20048;-67
2024/01/15 08:35:41;;;;;;;108.88;65.75;;;;;;;1.00;61.75;93796.84;4201818;28;20056;-69
2024/01/15 08:37:42;;;;;;;102.55;63.40;;;;;;;1.04;60.51;93784.53;4193974;28;20454;-67
2024/01/15 08:39:44;;;;;;;98.00;61.03;;;;;;;1.10;60.26;93790.94;4201228;28;20108;-66
2024/01/15 08:41:47;;;;;;;92.10;59.70;;;;;;;1.13;60.62;93780.38;4195010;28;20074;-68
2024/01/15 08:43:49;;;;;;;85.18;54.28;;;;;;;1.17;60.92;93785.16;4202273;28;20477;-71
2024/01/15 08:45:51;;;;;;;79.60;51.53;;;;;;;1.09;60.71;93784.97;4199740;28;20048;-67
2024/01/15 08:47:53;;;;;;;82.63;51.60;;;;;;;1.27;60.99;93781.81;4197275;28;20040;-68
2024/01/15 08:49:55;;;;;;;88.82;52.50;;;;;;;1.48;60.30;93782.63;4194940;28;20162;-69
2024/01/15 08:51:57;;;;;;;70.93;47.22;;;;;;;1.71;58.90;93785.09;4197466;28;20520;-66
2024/01/15 08:53:59;;;;;;;70.45;47.38;;;;;;;1.94;58.26;93778.81;4199664;28;20059;-68
2024/01/15 08:56:01;;;;;;;75.03;46.55;;;;;;;1.98;57.88;93762.13;4198243;28;20548;-67
2024/01/15 08:58:03;;;;;;;72.10;46.50;;;;;;;2.05;57.60;93770.97;4202578;28;20725;-68
2024/01/15 09:00:08;;;;;;;70.38;45.92;;;;;;;2.13;57.07;93748.81;4198129;28;20458;-68
2024/01/15 09:02:10;;;;;;;67.68;44.78;;;;;;;2.13;57.51;93746.22;4193542;28;20048;-69
2024/01/15 09:04:12;;;;;;;72.70;45.20;;;;;;;2.20;57.32;93744.78;4194957;28;20085;-68
2024/01/15 09:06:14;;;;;;;58.13;41.70;;;;;;;2.31;56.93;93749.84;4203721;28;20056;-69
2024/01/15 09:08:16;;;;;;;65.93;43.25;;;;;;;2.34;56.36;93744.38;4203901;28;20446;-69
2024/01/15 09:10:18;;;;;;;60.05;40.97;;;;;;;2.43;56.03;93732.44;4207431;28;20090;-70
2024/01/15 09:12:22;;;;;;;62.17;42.20;;;;;;;2.53;56.09;93711.78;4203660;28;20051;-70
2024/01/15 09:14:24;;;;;;;76.43;44.97;;;;;;;2.48;56.25;93693.28;4204585;28;20056;-70
2024/01/15 09:16:38;;;;;;;66.72;43.53;;;;;;;2.53;55.86;93691.91;4197008;28;20040;-69
2024/01/15 09:18:40;;;;;;;56.78;40.28;;;;;;;2.49;56.13;93708.63;4196845;28;20541;-68
2024/01/15 09:20:41;;;;;;;67.03;43.42;;;;;;;2.43;55.99;93706.56;4194907;28;20056;-71